createdAt,value
2017-10-04T00:00:15.315Z,0
2017-10-04T00:01:16.972Z,0
2017-10-04T00:02:18.632Z,0
2017-10-04T00:03:20.282Z,0
2017-10-04T00:04:21.936Z,0
2017-10-04T00:05:23.593Z,0
2017-10-04T00:06:25.244Z,0
2017-10-04T00:07:26.904Z,0
2017-10-04T00:08:28.563Z,0
2017-10-04T00:09:30.210Z,0
2017-10-04T00:10:31.873Z,0
2017-10-04T00:11:33.528Z,0
2017-10-04T00:12:35.179Z,0
2017-10-04T00:13:36.831Z,0
2017-10-04T00:14:38.496Z,0
2017-10-04T00:15:40.146Z,0
2017-10-04T00:16:41.797Z,0
2017-10-04T00:17:43.456Z,0
2017-10-04T00:18:45.132Z,0
2017-10-04T00:19:46.767Z,0
2017-10-04T00:20:48.428Z,0
2017-10-04T00:21:50.087Z,0
2017-10-04T00:22:51.742Z,0
2017-10-04T00:23:53.399Z,0
2017-10-04T00:24:55.052Z,0
2017-10-04T00:25:56.729Z,0
2017-10-04T00:26:58.385Z,0
2017-10-04T00:28:00.044Z,0
2017-10-04T00:29:01.700Z,0
2017-10-04T00:30:03.365Z,0
2017-10-04T00:31:05.015Z,0
2017-10-04T00:32:06.673Z,0
2017-10-04T00:33:08.334Z,0
2017-10-04T00:34:09.991Z,0
2017-10-04T00:35:11.648Z,0
2017-10-04T00:36:13.310Z,0
2017-10-04T00:37:14.984Z,0
2017-10-04T00:38:16.642Z,0
2017-10-04T00:39:18.300Z,0
2017-10-04T00:40:19.956Z,0
2017-10-04T00:41:21.609Z,0
2017-10-04T00:42:23.260Z,0
2017-10-04T00:43:24.906Z,0
2017-10-04T00:44:26.569Z,0
2017-10-04T00:45:28.233Z,0
2017-10-04T00:46:29.895Z,0
2017-10-04T00:47:31.543Z,0
2017-10-04T00:48:33.190Z,0
2017-10-04T00:49:34.851Z,0
2017-10-04T00:50:36.527Z,0
2017-10-04T00:51:38.183Z,0
2017-10-04T00:52:39.832Z,0
2017-10-04T00:53:41.505Z,0
2017-10-04T00:54:43.139Z,0
2017-10-04T00:55:44.797Z,0
2017-10-04T00:56:46.449Z,0
2017-10-04T00:57:48.101Z,0
2017-10-04T00:58:49.756Z,0
2017-10-04T00:59:51.416Z,0
2017-10-04T01:00:53.064Z,0
2017-10-04T01:01:54.720Z,0
2017-10-04T01:02:56.362Z,0
2017-10-04T01:03:58.017Z,0
2017-10-04T01:04:59.692Z,0
2017-10-04T01:06:01.374Z,0
2017-10-04T01:07:03.031Z,0
2017-10-04T01:08:04.691Z,0
2017-10-04T01:09:06.340Z,0
2017-10-04T01:10:07.991Z,0
2017-10-04T01:11:09.642Z,0
2017-10-04T01:12:11.301Z,0
2017-10-04T01:13:12.955Z,0
2017-10-04T01:14:14.638Z,0
2017-10-04T01:15:16.307Z,0
2017-10-04T01:16:17.954Z,0
2017-10-04T01:17:19.616Z,0
2017-10-04T01:18:21.271Z,0
2017-10-04T01:19:22.923Z,0
2017-10-04T01:20:24.575Z,0
2017-10-04T01:21:26.228Z,0
2017-10-04T01:22:27.878Z,0
2017-10-04T01:23:29.528Z,0
2017-10-04T01:24:31.178Z,0
2017-10-04T01:25:32.832Z,0
2017-10-04T01:26:34.476Z,0
2017-10-04T01:27:36.172Z,0
2017-10-04T01:28:37.834Z,0
2017-10-04T01:29:39.483Z,0
2017-10-04T01:30:41.138Z,0
2017-10-04T01:31:42.790Z,0
2017-10-04T01:32:44.441Z,0
2017-10-04T01:33:46.088Z,0
2017-10-04T01:34:47.743Z,0
2017-10-04T01:35:49.406Z,0
2017-10-04T01:36:51.061Z,0
2017-10-04T01:37:52.723Z,0
2017-10-04T01:38:54.369Z,0
2017-10-04T01:39:56.025Z,0
2017-10-04T01:40:57.680Z,0
2017-10-04T01:41:59.334Z,0
2017-10-04T01:43:00.989Z,0
2017-10-04T01:44:02.640Z,0
2017-10-04T01:45:04.301Z,0
2017-10-04T01:46:05.944Z,0
2017-10-04T01:47:07.595Z,0
2017-10-04T01:48:09.262Z,0
2017-10-04T01:49:10.912Z,0
2017-10-04T01:50:12.580Z,0
2017-10-04T01:51:14.243Z,0
2017-10-04T01:52:15.892Z,0
2017-10-04T01:53:17.550Z,0
2017-10-04T01:54:19.199Z,0
2017-10-04T01:55:20.850Z,0
2017-10-04T02:01:52.695Z,0
2017-10-04T02:02:54.343Z,0
2017-10-04T02:04:46.248Z,0
2017-10-04T02:05:47.900Z,0
2017-10-04T02:06:49.542Z,0
2017-10-04T02:07:51.192Z,0
2017-10-04T02:08:52.848Z,0
2017-10-04T02:09:55.215Z,0
2017-10-04T02:10:56.857Z,0
2017-10-04T02:11:58.516Z,0
2017-10-04T02:13:00.168Z,0
2017-10-04T02:14:01.821Z,0
2017-10-04T02:15:03.471Z,0
2017-10-04T02:16:05.118Z,0
2017-10-04T02:17:06.780Z,0
2017-10-04T02:18:08.430Z,0
2017-10-04T02:19:10.080Z,0
2017-10-04T02:20:11.723Z,0
2017-10-04T02:21:13.374Z,0
2017-10-04T02:22:15.054Z,0
2017-10-04T02:23:16.706Z,0
2017-10-04T02:24:18.359Z,0
2017-10-04T02:25:20.008Z,0
2017-10-04T02:26:21.679Z,0
2017-10-04T02:27:23.338Z,0
2017-10-04T02:28:24.981Z,0
2017-10-04T02:29:26.628Z,0
2017-10-04T02:30:28.288Z,0
2017-10-04T02:31:29.958Z,0
2017-10-04T02:32:31.605Z,0
2017-10-04T02:33:33.261Z,0
2017-10-04T02:34:34.918Z,0
2017-10-04T02:35:36.569Z,0
2017-10-04T02:36:38.225Z,0
2017-10-04T02:37:39.872Z,0
2017-10-04T02:38:41.530Z,0
2017-10-04T02:39:43.187Z,0
2017-10-04T02:40:44.843Z,0
2017-10-04T02:41:46.491Z,0
2017-10-04T02:42:48.139Z,0
2017-10-04T02:43:49.790Z,0
2017-10-04T02:44:51.441Z,0
2017-10-04T02:45:53.111Z,0
2017-10-04T02:46:54.768Z,0
2017-10-04T02:47:56.422Z,0
2017-10-04T02:48:58.071Z,0
2017-10-04T02:49:59.724Z,0
2017-10-04T02:51:01.368Z,0
2017-10-04T02:52:03.027Z,0
2017-10-04T02:53:04.750Z,0
2017-10-04T02:54:06.404Z,0
2017-10-04T02:55:08.054Z,0
2017-10-04T02:56:09.715Z,0
2017-10-04T02:57:11.366Z,0
2017-10-04T02:58:13.026Z,0
2017-10-04T02:59:14.697Z,0
2017-10-04T03:00:16.347Z,0
2017-10-04T03:01:17.998Z,0
2017-10-04T03:02:19.650Z,0
2017-10-04T03:03:21.301Z,0
2017-10-04T03:04:22.961Z,0
2017-10-04T03:05:24.626Z,0
2017-10-04T03:06:26.279Z,0
2017-10-04T03:07:27.929Z,0
2017-10-04T03:08:29.580Z,0
2017-10-04T03:09:31.237Z,0
2017-10-04T03:10:32.888Z,0
2017-10-04T03:11:34.542Z,0
2017-10-04T03:12:36.195Z,0
2017-10-04T03:13:37.845Z,0
2017-10-04T03:14:39.498Z,0
2017-10-04T03:15:41.144Z,0
2017-10-04T03:16:42.804Z,0
2017-10-04T03:17:44.465Z,0
2017-10-04T03:18:46.122Z,0
2017-10-04T03:19:47.781Z,0
2017-10-04T03:20:49.432Z,0
2017-10-04T03:21:51.087Z,0
2017-10-04T03:22:52.742Z,0
2017-10-04T03:23:54.404Z,0
2017-10-04T03:24:56.078Z,0
2017-10-04T03:25:57.703Z,0
2017-10-04T03:26:59.354Z,0
2017-10-04T03:28:01.029Z,0
2017-10-04T03:29:02.680Z,0
2017-10-04T03:30:04.343Z,0
2017-10-04T03:31:05.997Z,0
2017-10-04T03:32:07.659Z,0
2017-10-04T03:33:09.304Z,0
2017-10-04T03:34:10.956Z,0
2017-10-04T03:35:12.612Z,0
2017-10-04T03:36:14.257Z,0
2017-10-04T03:37:15.912Z,0
2017-10-04T03:38:17.559Z,0
2017-10-04T03:39:19.202Z,0
2017-10-04T03:40:20.861Z,0
2017-10-04T03:41:22.520Z,0
2017-10-04T03:42:24.193Z,0
2017-10-04T03:43:25.826Z,0
2017-10-04T03:44:27.472Z,0
2017-10-04T03:45:29.121Z,0
2017-10-04T03:46:30.773Z,0
2017-10-04T03:47:32.469Z,0
2017-10-04T03:48:34.118Z,0
2017-10-04T03:49:35.763Z,0
2017-10-04T03:50:37.428Z,0
2017-10-04T03:51:39.140Z,0
2017-10-04T03:52:40.794Z,0
2017-10-04T03:53:42.447Z,0
2017-10-04T03:54:44.098Z,0
2017-10-04T03:55:46.013Z,0
2017-10-04T03:56:48.022Z,0
2017-10-04T03:57:50.049Z,0
2017-10-04T03:58:51.788Z,0
2017-10-04T03:59:53.443Z,0
2017-10-04T04:00:55.088Z,0
2017-10-04T04:01:56.744Z,0
2017-10-04T04:02:58.415Z,0
2017-10-04T04:04:00.081Z,0
2017-10-04T04:05:01.737Z,0
2017-10-04T04:06:03.390Z,0
2017-10-04T04:07:05.045Z,0
2017-10-04T04:08:06.699Z,0
2017-10-04T04:09:08.346Z,0
2017-10-04T04:10:09.999Z,0
2017-10-04T04:11:11.657Z,0
2017-10-04T04:12:13.343Z,0
2017-10-04T04:13:15.025Z,0
2017-10-04T04:14:16.680Z,0
2017-10-04T04:15:18.334Z,0
2017-10-04T04:16:19.990Z,0
2017-10-04T04:17:21.639Z,0
2017-10-04T04:18:23.289Z,0
2017-10-04T04:19:24.942Z,0
2017-10-04T04:20:26.606Z,0
2017-10-04T04:21:28.257Z,0
2017-10-04T04:22:29.905Z,0
2017-10-04T04:23:31.557Z,0
2017-10-04T04:24:33.212Z,0
2017-10-04T04:25:34.857Z,0
2017-10-04T04:26:36.515Z,0
2017-10-04T04:27:38.166Z,0
2017-10-04T04:28:39.833Z,0
2017-10-04T04:29:41.480Z,0
2017-10-04T04:30:43.135Z,0
2017-10-04T04:31:44.781Z,0
2017-10-04T04:32:46.431Z,0
2017-10-04T04:33:48.084Z,0
2017-10-04T04:34:49.739Z,0
2017-10-04T04:35:51.395Z,0
2017-10-04T04:36:53.042Z,0
2017-10-04T04:37:54.755Z,0
2017-10-04T04:38:56.413Z,0
2017-10-04T04:39:58.066Z,0
2017-10-04T04:40:59.725Z,0
2017-10-04T04:42:01.376Z,0
2017-10-04T04:43:03.048Z,0
2017-10-04T04:44:04.700Z,0
2017-10-04T04:45:06.365Z,0
2017-10-04T04:46:08.010Z,0
2017-10-04T04:47:09.675Z,0
2017-10-04T04:48:11.315Z,0
2017-10-04T04:49:12.976Z,0
2017-10-04T04:50:14.649Z,0
2017-10-04T04:51:16.632Z,0
2017-10-04T04:52:18.286Z,0
2017-10-04T04:53:19.938Z,0
2017-10-04T04:54:21.623Z,0
2017-10-04T04:55:23.283Z,0
2017-10-04T04:56:24.946Z,0
2017-10-04T04:57:26.596Z,0
2017-10-04T04:58:28.249Z,0
2017-10-04T04:59:29.898Z,0
2017-10-04T05:00:31.584Z,0
2017-10-04T05:01:33.209Z,0
2017-10-04T05:02:34.863Z,0
2017-10-04T05:03:36.525Z,0
2017-10-04T05:04:38.189Z,0
2017-10-04T05:05:39.848Z,0
2017-10-04T05:06:41.500Z,0
2017-10-04T05:07:43.160Z,0
2017-10-04T05:08:44.817Z,0
2017-10-04T05:09:46.473Z,0
2017-10-04T05:10:48.133Z,0
2017-10-04T05:11:49.807Z,0
2017-10-04T05:12:51.459Z,0
2017-10-04T05:13:53.122Z,0
2017-10-04T05:14:54.779Z,0
2017-10-04T05:15:56.433Z,0
2017-10-04T05:16:58.085Z,0
2017-10-04T05:17:59.738Z,0
2017-10-04T05:19:01.398Z,0
2017-10-04T05:20:03.051Z,0
2017-10-04T05:21:04.702Z,0
2017-10-04T05:22:06.350Z,0
2017-10-04T05:23:08.004Z,0
2017-10-04T05:24:09.657Z,0
2017-10-04T05:25:11.335Z,0
2017-10-04T05:26:12.991Z,0
2017-10-04T05:27:14.675Z,0
2017-10-04T05:28:16.367Z,5
2017-10-04T05:29:18.028Z,5
2017-10-04T05:30:19.679Z,5
2017-10-04T05:31:21.335Z,5
2017-10-04T05:32:22.985Z,5
2017-10-04T05:33:24.644Z,5
2017-10-04T05:34:26.293Z,5
2017-10-04T05:35:27.945Z,5
2017-10-04T05:36:29.604Z,10
2017-10-04T05:37:31.259Z,10
2017-10-04T05:38:32.923Z,10
2017-10-04T05:39:34.590Z,10
2017-10-04T05:40:36.242Z,15
2017-10-04T05:41:37.901Z,15
2017-10-04T05:42:39.561Z,20
2017-10-04T05:43:41.225Z,20
2017-10-04T05:44:42.881Z,25
2017-10-04T05:45:44.535Z,30
2017-10-04T05:46:46.210Z,35
2017-10-04T05:47:47.896Z,35
2017-10-04T05:48:49.552Z,40
2017-10-04T05:49:51.202Z,45
2017-10-04T05:50:52.868Z,45
2017-10-04T05:51:54.529Z,45
2017-10-04T05:52:56.186Z,50
2017-10-04T05:53:57.853Z,50
2017-10-04T05:54:59.514Z,50
2017-10-04T06:01:31.116Z,55
2017-10-04T06:02:32.782Z,55
2017-10-04T06:03:34.465Z,50
2017-10-04T06:04:36.116Z,50
2017-10-04T06:05:37.776Z,45
2017-10-04T06:06:39.444Z,40
2017-10-04T06:07:41.100Z,45
2017-10-04T06:08:42.757Z,45
2017-10-04T06:09:44.427Z,45
2017-10-04T06:10:46.114Z,45
2017-10-04T06:11:47.765Z,45
2017-10-04T06:12:49.418Z,45
2017-10-04T06:13:51.073Z,45
2017-10-04T06:14:52.739Z,45
2017-10-04T06:15:54.397Z,50
2017-10-04T06:16:56.067Z,55
2017-10-04T06:17:57.726Z,75
2017-10-04T06:18:59.385Z,65
2017-10-04T06:20:01.044Z,75
2017-10-04T06:21:02.710Z,70
2017-10-04T06:22:04.370Z,70
2017-10-04T06:23:06.082Z,70
2017-10-04T06:24:07.735Z,70
2017-10-04T06:25:09.394Z,65
2017-10-04T06:26:11.074Z,70
2017-10-04T06:27:12.731Z,85
2017-10-04T06:28:14.400Z,80
2017-10-04T06:29:16.059Z,80
2017-10-04T06:30:17.727Z,85
2017-10-04T06:31:19.382Z,105
2017-10-04T06:32:21.037Z,90
2017-10-04T06:33:22.690Z,85
2017-10-04T06:34:24.345Z,95
2017-10-04T06:35:26.007Z,85
2017-10-04T06:36:27.683Z,80
2017-10-04T06:37:29.354Z,95
2017-10-04T06:38:31.021Z,100
2017-10-04T06:39:32.681Z,100
2017-10-04T06:40:34.342Z,90
2017-10-04T06:41:35.996Z,100
2017-10-04T06:42:37.652Z,110
2017-10-04T06:43:39.316Z,105
2017-10-04T06:44:40.975Z,105
2017-10-04T06:45:42.633Z,125
2017-10-04T06:46:44.287Z,115
2017-10-04T06:47:45.947Z,105
2017-10-04T06:48:47.663Z,95
2017-10-04T06:49:49.314Z,105
2017-10-04T06:50:50.977Z,100
2017-10-04T06:51:52.641Z,120
2017-10-04T06:52:54.293Z,105
2017-10-04T06:53:55.951Z,115
2017-10-04T06:54:57.616Z,115
2017-10-04T06:55:59.274Z,115
2017-10-04T06:57:00.935Z,115
2017-10-04T06:58:02.611Z,135
2017-10-04T06:59:04.262Z,105
2017-10-04T07:00:05.922Z,105
2017-10-04T07:01:07.575Z,125
2017-10-04T07:02:09.272Z,120
2017-10-04T07:03:10.929Z,115
2017-10-04T07:04:12.593Z,130
2017-10-04T07:05:14.274Z,150
2017-10-04T07:06:15.934Z,205
2017-10-04T07:07:17.588Z,220
2017-10-04T07:08:19.243Z,245
2017-10-04T07:09:20.905Z,220
2017-10-04T07:10:22.564Z,205
2017-10-04T07:11:24.217Z,240
2017-10-04T07:12:25.876Z,260
2017-10-04T07:13:27.542Z,270
2017-10-04T07:14:29.196Z,290
2017-10-04T07:15:30.861Z,260
2017-10-04T07:16:32.516Z,290
2017-10-04T07:17:34.181Z,315
2017-10-04T07:18:35.836Z,355
2017-10-04T07:19:37.497Z,350
2017-10-04T07:20:39.155Z,340
2017-10-04T07:21:40.823Z,325
2017-10-04T07:22:42.494Z,345
2017-10-04T07:23:44.171Z,300
2017-10-04T07:24:45.832Z,240
2017-10-04T07:25:47.614Z,225
2017-10-04T07:26:49.265Z,220
2017-10-04T07:27:51.015Z,240
2017-10-04T07:28:52.676Z,260
2017-10-04T07:29:54.335Z,300
2017-10-04T07:30:55.991Z,280
2017-10-04T07:31:57.659Z,260
2017-10-04T07:32:59.320Z,260
2017-10-04T07:34:00.991Z,265
2017-10-04T07:35:02.660Z,295
2017-10-04T07:36:04.319Z,345
2017-10-04T07:37:05.982Z,400
2017-10-04T07:38:07.643Z,405
2017-10-04T07:39:09.301Z,390
2017-10-04T07:40:10.984Z,380
2017-10-04T07:41:12.682Z,330
2017-10-04T07:42:14.341Z,325
2017-10-04T07:43:16.129Z,350
2017-10-04T07:44:17.785Z,350
2017-10-04T07:45:19.448Z,295
2017-10-04T07:46:21.113Z,395
2017-10-04T07:47:22.785Z,330
2017-10-04T07:48:24.442Z,305
2017-10-04T07:49:26.105Z,280
2017-10-04T07:50:27.747Z,275
2017-10-04T07:51:29.415Z,305
2017-10-04T07:52:31.081Z,275
2017-10-04T07:53:32.744Z,215
2017-10-04T07:54:34.414Z,220
2017-10-04T07:55:36.106Z,170
2017-10-04T07:56:37.777Z,100
2017-10-04T07:57:39.431Z,100
2017-10-04T07:58:41.091Z,140
2017-10-04T07:59:42.755Z,230
2017-10-04T08:00:44.413Z,230
2017-10-04T08:01:46.072Z,220
2017-10-04T08:02:47.727Z,265
2017-10-04T08:03:49.381Z,255
2017-10-04T08:04:51.040Z,240
2017-10-04T08:05:52.717Z,310
2017-10-04T08:06:54.369Z,320
2017-10-04T08:07:56.030Z,340
2017-10-04T08:08:57.693Z,400
2017-10-04T08:09:59.365Z,355
2017-10-04T08:11:01.028Z,350
2017-10-04T08:12:02.687Z,350
2017-10-04T08:13:04.347Z,395
2017-10-04T08:14:06.006Z,430
2017-10-04T08:15:07.662Z,340
2017-10-04T08:16:09.321Z,320
2017-10-04T08:17:10.987Z,425
2017-10-04T08:18:12.648Z,420
2017-10-04T08:19:14.311Z,420
2017-10-04T08:20:15.974Z,370
2017-10-04T08:21:17.633Z,440
2017-10-04T08:22:19.303Z,465
2017-10-04T08:23:20.957Z,455
2017-10-04T08:24:22.618Z,425
2017-10-04T08:25:24.284Z,365
2017-10-04T08:26:25.992Z,450
2017-10-04T08:27:27.674Z,435
2017-10-04T08:28:29.333Z,470
2017-10-04T08:29:30.997Z,430
2017-10-04T08:30:32.662Z,435
2017-10-04T08:31:34.328Z,500
2017-10-04T08:32:36.018Z,500
2017-10-04T08:33:37.678Z,540
2017-10-04T08:34:39.344Z,465
2017-10-04T08:35:41.013Z,470
2017-10-04T08:36:42.695Z,550
2017-10-04T08:37:44.358Z,710
2017-10-04T08:38:46.022Z,685
2017-10-04T08:39:47.683Z,610
2017-10-04T08:40:49.342Z,680
2017-10-04T08:41:51.014Z,695
2017-10-04T08:42:52.683Z,845
2017-10-04T08:43:54.345Z,800
2017-10-04T08:44:56.004Z,655
2017-10-04T08:45:57.674Z,705
2017-10-04T08:46:59.346Z,655
2017-10-04T08:48:01.008Z,695
2017-10-04T08:49:02.677Z,670
2017-10-04T08:50:04.339Z,630
2017-10-04T08:51:06.027Z,585
2017-10-04T08:52:07.698Z,750
2017-10-04T08:53:09.368Z,595
2017-10-04T08:54:11.049Z,400
2017-10-04T08:55:12.709Z,515
2017-10-04T08:56:14.377Z,560
2017-10-04T08:57:16.038Z,425
2017-10-04T08:58:17.702Z,415
2017-10-04T08:59:19.368Z,290
2017-10-04T09:00:21.034Z,280
2017-10-04T09:01:22.692Z,375
2017-10-04T09:02:24.346Z,520
2017-10-04T09:03:26.013Z,805
2017-10-04T09:04:27.676Z,895
2017-10-04T09:05:29.335Z,695
2017-10-04T09:06:31.002Z,605
2017-10-04T09:07:32.663Z,700
2017-10-04T09:08:34.336Z,485
2017-10-04T09:09:36.002Z,425
2017-10-04T09:10:37.668Z,370
2017-10-04T09:11:39.333Z,390
2017-10-04T09:12:40.993Z,345
2017-10-04T09:13:42.666Z,425
2017-10-04T09:14:44.327Z,460
2017-10-04T09:15:45.994Z,370
2017-10-04T09:16:47.655Z,385
2017-10-04T09:17:49.325Z,500
2017-10-04T09:18:51.012Z,545
2017-10-04T09:19:52.676Z,615
2017-10-04T09:20:54.340Z,695
2017-10-04T09:21:56.005Z,655
2017-10-04T09:22:57.729Z,735
2017-10-04T09:23:59.391Z,745
2017-10-04T09:25:01.051Z,790
2017-10-04T09:26:02.723Z,870
2017-10-04T09:27:04.391Z,755
2017-10-04T09:28:06.052Z,680
2017-10-04T09:29:07.720Z,760
2017-10-04T09:30:09.380Z,730
2017-10-04T09:31:11.055Z,775
2017-10-04T09:32:12.716Z,865
2017-10-04T09:33:14.376Z,975
2017-10-04T09:34:16.035Z,750
2017-10-04T09:35:17.826Z,745
2017-10-04T09:36:19.784Z,580
2017-10-04T09:37:21.505Z,755
2017-10-04T09:38:23.173Z,705
2017-10-04T09:39:24.833Z,710
2017-10-04T09:40:26.498Z,660
2017-10-04T09:41:28.230Z,560
2017-10-04T09:42:29.898Z,580
2017-10-04T09:43:32.088Z,525
2017-10-04T09:44:33.884Z,660
2017-10-04T09:45:35.598Z,575
2017-10-04T09:46:37.264Z,365
2017-10-04T09:47:39.034Z,405
2017-10-04T09:48:40.809Z,500
2017-10-04T09:49:42.993Z,525
2017-10-04T09:50:44.660Z,480
2017-10-04T09:51:46.327Z,520
2017-10-04T09:52:48.020Z,615
2017-10-04T09:53:49.719Z,590
2017-10-04T09:54:51.382Z,610
2017-10-04T10:01:00.538Z,675
2017-10-04T10:02:02.186Z,925
2017-10-04T10:03:03.849Z,1080
2017-10-04T10:04:05.510Z,780
2017-10-04T10:05:07.180Z,670
2017-10-04T10:06:08.835Z,610
2017-10-04T10:07:10.533Z,600
2017-10-04T10:08:12.202Z,565
2017-10-04T10:09:13.858Z,810
2017-10-04T10:10:15.531Z,670
2017-10-04T10:11:17.216Z,575
2017-10-04T10:12:18.878Z,510
2017-10-04T10:13:20.545Z,570
2017-10-04T10:14:22.208Z,800
2017-10-04T10:15:23.881Z,760
2017-10-04T10:16:25.540Z,720
2017-10-04T10:17:27.223Z,780
2017-10-04T10:18:28.880Z,620
2017-10-04T10:19:30.545Z,485
2017-10-04T10:20:32.210Z,485
2017-10-04T10:21:33.879Z,580
2017-10-04T10:22:35.552Z,535
2017-10-04T10:23:37.223Z,570
2017-10-04T10:24:38.886Z,810
2017-10-04T10:25:40.553Z,710
2017-10-04T10:26:42.216Z,685
2017-10-04T10:27:43.911Z,750
2017-10-04T10:28:45.587Z,750
2017-10-04T10:29:47.264Z,745
2017-10-04T10:30:48.922Z,710
2017-10-04T10:31:50.604Z,730
2017-10-04T10:32:52.267Z,710
2017-10-04T10:33:53.959Z,660
2017-10-04T10:34:55.623Z,710
2017-10-04T10:35:57.351Z,585
2017-10-04T10:36:59.000Z,560
2017-10-04T10:38:00.658Z,540
2017-10-04T10:39:02.318Z,505
2017-10-04T10:40:04.032Z,445
2017-10-04T10:41:05.697Z,455
2017-10-04T10:42:07.446Z,495
2017-10-04T10:43:09.117Z,670
2017-10-04T10:44:10.840Z,555
2017-10-04T10:45:12.506Z,580
2017-10-04T10:46:14.170Z,775
2017-10-04T10:47:16.002Z,645
2017-10-04T10:48:17.679Z,530
2017-10-04T10:49:19.356Z,640
2017-10-04T10:50:21.092Z,670
2017-10-04T10:51:22.755Z,620
2017-10-04T10:52:24.423Z,590
2017-10-04T10:53:26.089Z,570
2017-10-04T10:54:27.758Z,705
2017-10-04T10:55:29.425Z,740
2017-10-04T10:56:31.086Z,505
2017-10-04T10:57:32.794Z,345
2017-10-04T10:58:34.470Z,375
2017-10-04T10:59:36.126Z,435
2017-10-04T11:00:37.800Z,765
2017-10-04T11:01:39.464Z,735
2017-10-04T11:02:41.145Z,520
2017-10-04T11:03:42.804Z,475
2017-10-04T11:04:44.531Z,370
2017-10-04T11:05:46.199Z,260
2017-10-04T11:06:47.859Z,250
2017-10-04T11:07:49.524Z,285
2017-10-04T11:08:51.186Z,430
2017-10-04T11:09:52.871Z,535
2017-10-04T11:10:54.565Z,425
2017-10-04T11:11:56.281Z,300
2017-10-04T11:12:57.946Z,325
2017-10-04T11:13:59.604Z,400
2017-10-04T11:15:02.120Z,295
2017-10-04T11:16:03.799Z,245
2017-10-04T11:17:05.463Z,305
2017-10-04T11:18:07.131Z,335
2017-10-04T11:19:08.839Z,410
2017-10-04T11:20:10.500Z,375
2017-10-04T11:21:12.176Z,365
2017-10-04T11:22:13.845Z,420
2017-10-04T11:23:15.539Z,315
2017-10-04T11:24:17.230Z,280
2017-10-04T11:25:18.884Z,405
2017-10-04T11:26:20.558Z,465
2017-10-04T11:27:22.240Z,480
2017-10-04T11:28:23.902Z,575
2017-10-04T11:29:25.591Z,540
2017-10-04T11:30:27.253Z,505
2017-10-04T11:31:28.930Z,780
2017-10-04T11:32:30.589Z,985
2017-10-04T11:33:32.247Z,865
2017-10-04T11:34:34.064Z,790
2017-10-04T11:35:35.729Z,710
2017-10-04T11:36:37.400Z,645
2017-10-04T11:37:39.105Z,575
2017-10-04T11:38:40.779Z,535
2017-10-04T11:39:42.452Z,430
2017-10-04T11:40:44.116Z,465
2017-10-04T11:41:45.786Z,685
2017-10-04T11:42:47.457Z,695
2017-10-04T11:43:49.118Z,635
2017-10-04T11:44:50.776Z,640
2017-10-04T11:45:52.520Z,630
2017-10-04T11:46:54.195Z,600
2017-10-04T11:47:55.963Z,545
2017-10-04T11:48:57.992Z,540
2017-10-04T11:50:03.326Z,525
2017-10-04T11:51:04.985Z,660
2017-10-04T11:52:09.696Z,630
2017-10-04T11:53:12.203Z,700
2017-10-04T11:54:13.880Z,655
2017-10-04T11:55:15.670Z,445
2017-10-04T11:56:18.191Z,350
2017-10-04T11:57:19.854Z,360
2017-10-04T11:58:21.542Z,455
2017-10-04T11:59:23.212Z,650
2017-10-04T12:00:24.883Z,840
2017-10-04T12:01:26.551Z,955
2017-10-04T12:02:28.220Z,880
2017-10-04T12:03:29.882Z,795
2017-10-04T12:04:31.547Z,720
2017-10-04T12:05:33.219Z,1150
2017-10-04T12:06:34.890Z,1080
2017-10-04T12:07:36.564Z,910
2017-10-04T12:08:38.235Z,815
2017-10-04T12:09:39.898Z,740
2017-10-04T12:10:41.591Z,725
2017-10-04T12:11:43.399Z,620
2017-10-04T12:12:45.580Z,525
2017-10-04T12:13:51.192Z,505
2017-10-04T12:14:52.859Z,615
2017-10-04T12:15:54.527Z,540
2017-10-04T12:16:56.192Z,470
2017-10-04T12:17:57.887Z,415
2017-10-04T12:18:59.547Z,280
2017-10-04T12:20:01.218Z,205
2017-10-04T12:21:02.889Z,145
2017-10-04T12:22:04.779Z,145
2017-10-04T12:23:06.437Z,180
2017-10-04T12:24:08.106Z,295
2017-10-04T12:25:09.787Z,460
2017-10-04T12:26:11.476Z,420
2017-10-04T12:27:13.141Z,435
2017-10-04T12:28:14.834Z,610
2017-10-04T12:29:16.495Z,965
2017-10-04T12:30:18.168Z,1245
2017-10-04T12:31:19.848Z,1470
2017-10-04T12:32:21.715Z,950
2017-10-04T12:33:23.375Z,685
2017-10-04T12:34:25.048Z,740
2017-10-04T12:35:26.703Z,650
2017-10-04T12:36:28.374Z,620
2017-10-04T12:37:30.049Z,645
2017-10-04T12:38:31.720Z,675
2017-10-04T12:39:33.389Z,875
2017-10-04T12:40:35.058Z,1310
2017-10-04T12:41:36.726Z,1150
2017-10-04T12:42:38.423Z,1140
2017-10-04T12:43:40.085Z,1175
2017-10-04T12:44:41.752Z,1110
2017-10-04T12:45:43.480Z,1285
2017-10-04T12:46:45.204Z,1110
2017-10-04T12:47:46.879Z,1015
2017-10-04T12:48:48.581Z,1285
2017-10-04T12:49:50.763Z,1450
2017-10-04T12:50:51.890Z,1240
2017-10-04T12:51:53.566Z,1095
2017-10-04T12:52:55.392Z,935
2017-10-04T12:53:57.068Z,1065
2017-10-04T12:54:58.729Z,675
2017-10-04T12:56:00.536Z,550
2017-10-04T12:57:02.165Z,505
2017-10-04T12:58:03.831Z,460
2017-10-04T12:59:05.501Z,420
2017-10-04T13:00:07.175Z,490
2017-10-04T13:01:08.844Z,630
2017-10-04T13:02:10.870Z,480
2017-10-04T13:03:12.505Z,460
2017-10-04T13:04:14.186Z,485
2017-10-04T13:05:15.843Z,380
2017-10-04T13:06:17.523Z,265
2017-10-04T13:07:19.180Z,260
2017-10-04T13:08:20.857Z,320
2017-10-04T13:09:22.518Z,360
2017-10-04T13:10:24.404Z,390
2017-10-04T13:11:26.067Z,410
2017-10-04T13:12:27.765Z,335
2017-10-04T13:13:29.439Z,355
2017-10-04T13:14:31.108Z,505
2017-10-04T13:15:32.806Z,695
2017-10-04T13:16:34.479Z,730
2017-10-04T13:17:36.140Z,580
2017-10-04T13:18:46.220Z,585
2017-10-04T13:19:48.714Z,620
2017-10-04T13:20:50.392Z,570
2017-10-04T13:21:52.273Z,565
2017-10-04T13:22:53.947Z,545
2017-10-04T13:23:56.018Z,595
2017-10-04T13:24:57.899Z,635
2017-10-04T13:25:59.564Z,615
2017-10-04T13:27:01.409Z,595
2017-10-04T13:28:03.079Z,645
2017-10-04T13:29:05.146Z,620
2017-10-04T13:30:07.520Z,500
2017-10-04T13:31:09.342Z,420
2017-10-04T13:32:11.116Z,445
2017-10-04T13:33:12.930Z,450
2017-10-04T13:34:14.631Z,480
2017-10-04T13:35:16.362Z,540
2017-10-04T13:36:18.076Z,520
2017-10-04T13:37:19.746Z,560
2017-10-04T13:38:21.996Z,575
2017-10-04T13:39:23.660Z,575
2017-10-04T13:40:26.010Z,600
2017-10-04T13:41:27.684Z,525
2017-10-04T13:42:29.563Z,555
2017-10-04T13:43:31.339Z,620
2017-10-04T13:44:33.047Z,645
2017-10-04T13:45:34.713Z,670
2017-10-04T13:46:36.385Z,665
2017-10-04T13:47:38.054Z,645
2017-10-04T13:48:39.721Z,625
2017-10-04T13:49:41.395Z,600
2017-10-04T13:50:43.075Z,535
2017-10-04T13:51:44.740Z,530
2017-10-04T13:52:46.397Z,515
2017-10-04T13:53:48.076Z,500
2017-10-04T13:54:49.744Z,525
2017-10-04T13:55:51.420Z,550
2017-10-04T14:01:50.082Z,570
2017-10-04T14:02:51.732Z,590
2017-10-04T14:03:53.399Z,570
2017-10-04T14:04:55.067Z,555
2017-10-04T14:05:56.736Z,540
2017-10-04T14:06:58.418Z,530
2017-10-04T14:08:00.095Z,505
2017-10-04T14:09:01.762Z,465
2017-10-04T14:10:03.472Z,450
2017-10-04T14:11:05.122Z,455
2017-10-04T14:12:06.792Z,465
2017-10-04T14:13:08.454Z,440
2017-10-04T14:14:10.124Z,405
2017-10-04T14:15:11.792Z,395
2017-10-04T14:16:13.461Z,370
2017-10-04T14:17:15.152Z,340
2017-10-04T14:18:16.817Z,325
2017-10-04T14:19:18.476Z,295
2017-10-04T14:20:20.210Z,280
2017-10-04T14:21:21.910Z,275
2017-10-04T14:22:23.586Z,325
2017-10-04T14:23:25.246Z,360
2017-10-04T14:24:26.913Z,370
2017-10-04T14:25:28.576Z,355
2017-10-04T14:26:30.236Z,345
2017-10-04T14:27:31.898Z,340
2017-10-04T14:28:33.564Z,345
2017-10-04T14:29:35.239Z,350
2017-10-04T14:30:36.906Z,360
2017-10-04T14:31:38.566Z,360
2017-10-04T14:32:40.234Z,350
2017-10-04T14:33:41.909Z,340
2017-10-04T14:34:43.600Z,325
2017-10-04T14:35:45.268Z,315
2017-10-04T14:36:46.930Z,315
2017-10-04T14:37:48.623Z,335
2017-10-04T14:38:50.288Z,360
2017-10-04T14:39:51.951Z,350
2017-10-04T14:40:53.603Z,365
2017-10-04T14:41:55.275Z,380
2017-10-04T14:42:56.945Z,375
2017-10-04T14:43:58.617Z,375
2017-10-04T14:45:00.317Z,385
2017-10-04T14:46:01.989Z,365
2017-10-04T14:47:03.656Z,330
2017-10-04T14:48:05.312Z,320
2017-10-04T14:49:06.986Z,315
2017-10-04T14:50:08.811Z,310
2017-10-04T14:51:10.509Z,340
2017-10-04T14:52:12.164Z,355
2017-10-04T14:53:13.835Z,365
2017-10-04T14:54:15.498Z,380
2017-10-04T14:55:17.159Z,385